Oceanus — WXAQ — position and weather

sailwx.info

Track history (hours):
 
Tides and Currents Weather Stations Pressure Air Temp Water Temp Dewpoint Dewpoint Depression Visibility Wind Speed Wind Dir Waves Ship Positions

Oceanographic research ship Oceanus (USA)

Detailed information on ship capabilities available from University of Delaware's Ocean Information Center and ARCUS's ALIAS (Arctic Logistics Information and Support) project.

Owner: Oregon State University, Newport, OR. More information available from US FCC via Universal Licensing System.

Last reported at 2017-Apr-07 18:34 UTC. Time now 2017-Apr-29 05:53 UTC.
Position N 27°25' W 117°31'.
Warning: this ship's position is 21 days out of date.

Length 23 m; draft 7.2 m.

Type: Other ship. MMSI: 367977000.

Date/timePositionNaut miles runAvg speedWind from/ knotsBaromVisibWave heightAir tempDewpointWater temp
2017-Apr-07 18:34N 27°25' W 117°31'1 2.1
2017-Apr-07 18:14N 27°25' W 117°31'  
2017-Apr-05 13:36N 31°07' W 119°52'111.3
2017-Apr-05 13:30N 31°07' W 119°52'611.3
2017-Apr-05 12:57N 31°13' W 119°55'511.1
2017-Apr-05 12:29N 31°18' W 119°58'7310.5
2017-Apr-05 05:34N 32°24' W 120°33'0 4.6
2017-Apr-05 05:30N 32°25' W 120°33'0 0.2
2017-Apr-05 04:44N 32°25' W 120°33'0 0.2
2017-Apr-05 04:09N 32°25' W 120°33'0 0.0
2017-Apr-05 04:00N 32°25' W 120°33'0 0.0
2017-Apr-04 23:35N 32°25' W 120°33'0 0.1
2017-Apr-04 23:25N 32°25' W 120°33'0 0.1
2017-Apr-04 22:58N 32°25' W 120°33'42 1.0
2017-Apr-03 06:40N 32°22' W 119°44'210.4
2017-Apr-03 06:28N 32°22' W 119°41'510.4
2017-Apr-03 06:00N 32°21' W 119°36'710.3
2017-Apr-03 05:21N 32°20' W 119°28'410.3
2017-Apr-03 04:59N 32°19' W 119°23'510.2
2017-Apr-03 04:27N 32°18' W 119°17'410.2
2017-Apr-03 04:00N 32°17' W 119°12'11 9.9
2017-Apr-03 02:51N 32°17' W 118°58'410.5
2017-Apr-03 02:28N 32°18' W 118°54'610.4
2017-Apr-03 01:56N 32°20' W 118°47'410.4
2017-Apr-03 01:30N 32°21' W 118°42'510.1
2017-Apr-03 01:00N 32°22' W 118°36'510.2
2017-Apr-03 00:29N 32°23' W 118°30'510.1
2017-Apr-03 00:00N 32°24' W 118°24'510.2
2017-Apr-02 23:30N 32°25' W 118°19'5 9.9
2017-Apr-02 23:00N 32°26' W 118°13'5 9.7
2017-Apr-02 22:30N 32°27' W 118°07'5 9.8
2017-Apr-02 22:00N 32°28' W 118°02'510.1
2017-Apr-02 21:30N 32°30' W 117°56'5 9.7
2017-Apr-02 21:00N 32°31' W 117°50'5 9.7
2017-Apr-02 20:30N 32°32' W 117°45'510.1
2017-Apr-02 20:00N 32°33' W 117°39'510.1
2017-Apr-02 19:30N 32°34' W 117°33'510.0
2017-Apr-02 19:00N 32°35' W 117°27'510.1
2017-Apr-02 18:30N 32°37' W 117°21'510.7
2017-Apr-02 18:00N 32°38' W 117°15'4 8.7
2017-Apr-02 17:30N 32°42' W 117°14'0 0.9
2017-Apr-02 16:59N 32°42' W 117°14'0 0.0
2017-Apr-02 16:29N 32°42' W 117°14'0 0.0
2017-Apr-02 15:59N 32°42' W 117°14'0 0.0
2017-Apr-02 15:28N 32°42' W 117°14'0 0.0
2017-Apr-02 14:58N 32°42' W 117°14'0 0.0
2017-Apr-02 14:28N 32°42' W 117°14'0 0.0
2017-Apr-02 13:28N 32°42' W 117°14'0 0.0
2017-Apr-02 12:52N 32°42' W 117°14'0 0.0
2017-Apr-02 12:28N 32°42' W 117°14'0 0.0
2017-Apr-02 11:46N 32°42' W 117°14'0 0.0
2017-Apr-02 11:28N 32°42' W 117°14'0 0.0
2017-Apr-02 10:58N 32°42' W 117°14'0 0.0
2017-Apr-02 10:13N 32°42' W 117°14'0 0.0
2017-Apr-02 09:58N 32°42' W 117°14'0 0.0
2017-Apr-02 09:28N 32°42' W 117°14'0 0.0
2017-Apr-02 08:58N 32°42' W 117°14'0 0.0
2017-Apr-02 08:28N 32°42' W 117°14'0 0.0
2017-Apr-02 07:55N 32°42' W 117°14'0 0.0
2017-Apr-02 07:28N 32°42' W 117°14'0 0.0
2017-Apr-02 06:58N 32°42' W 117°14'0 0.0
2017-Apr-02 06:19N 32°42' W 117°14'0 0.0
2017-Apr-02 05:58N 32°42' W 117°14'0 0.0
2017-Apr-02 05:28N 32°42' W 117°14'0 0.0
2017-Apr-02 04:58N 32°42' W 117°14'0 0.0
2017-Apr-02 04:28N 32°42' W 117°14'0 0.0
2017-Apr-02 03:58N 32°42' W 117°14'0 0.0
2017-Apr-02 03:28N 32°42' W 117°14'0 0.0
2017-Apr-02 02:58N 32°42' W 117°14'0 0.0
2017-Apr-02 02:28N 32°42' W 117°14'0 0.0
2017-Apr-02 01:58N 32°42' W 117°14'0 0.0
2017-Apr-02 01:28N 32°42' W 117°14'0 0.0
2017-Apr-02 00:52N 32°42' W 117°14'0 0.0
2017-Apr-02 00:28N 32°42' W 117°14'0 0.0
2017-Apr-01 23:52N 32°42' W 117°14'0 0.0
2017-Apr-01 23:28N 32°42' W 117°14'0 0.0
2017-Apr-01 22:58N 32°42' W 117°14'0 0.0
2017-Apr-01 22:28N 32°42' W 117°14'0 0.0
2017-Apr-01 21:49N 32°42' W 117°14'0 0.0
2017-Apr-01 21:28N 32°42' W 117°14'0 0.0
2017-Apr-01 20:58N 32°42' W 117°14'0 0.0
2017-Apr-01 20:28N 32°42' W 117°14'0 0.0
2017-Apr-01 19:58N 32°42' W 117°14'0 0.0
2017-Apr-01 19:22N 32°42' W 117°14'0 0.0
2017-Apr-01 18:58N 32°42' W 117°14'0 0.0
2017-Apr-01 18:28N 32°42' W 117°14'0 0.0
2017-Apr-01 17:28N 32°42' W 117°14'0 0.0
2017-Apr-01 16:52N 32°42' W 117°14'0 0.0
2017-Apr-01 16:16N 32°42' W 117°14'0 0.0
2017-Apr-01 15:58N 32°42' W 117°14'0 0.0
2017-Apr-01 15:25N 32°42' W 117°14'0 0.0
2017-Apr-01 14:58N 32°42' W 117°14'0 0.0
2017-Apr-01 14:28N 32°42' W 117°14'0 0.0
2017-Apr-01 13:28N 32°42' W 117°14'0 0.0
2017-Apr-01 12:58N 32°42' W 117°14'0 0.0
2017-Apr-01 12:28N 32°42' W 117°14'0 0.0
2017-Apr-01 11:58N 32°42' W 117°14'0 0.0
2017-Apr-01 11:28N 32°42' W 117°14'0 0.0
2017-Apr-01 10:58N 32°42' W 117°14'0 0.0
2017-Apr-01 10:28N 32°42' W 117°14'0 0.0
2017-Apr-01 09:55N 32°42' W 117°14'0 0.0
2017-Apr-01 09:28N 32°42' W 117°14'0 0.0
2017-Apr-01 08:58N 32°42' W 117°14'0 0.0
2017-Apr-01 08:28N 32°42' W 117°14'0 0.0
2017-Apr-01 07:58N 32°42' W 117°14'0 0.0
2017-Apr-01 07:30N 32°42' W 117°14'0 0.0
2017-Apr-01 07:00N 32°42' W 117°14'0 0.0
2017-Apr-01 06:27N 32°42' W 117°14'0 0.0
2017-Apr-01 05:57N 32°42' W 117°14'0 0.0
2017-Apr-01 05:27N 32°42' W 117°14'0 0.0
2017-Apr-01 04:57N 32°42' W 117°14'0 0.0
2017-Apr-01 04:27N 32°42' W 117°14'0 0.0
2017-Apr-01 03:57N 32°42' W 117°14'0 0.0
2017-Apr-01 03:27N 32°42' W 117°14'0 0.0
2017-Apr-01 02:57N 32°42' W 117°14'0 0.0
2017-Apr-01 02:27N 32°42' W 117°14'0 0.0
2017-Apr-01 01:57N 32°42' W 117°14'0 0.0
2017-Apr-01 01:21N 32°42' W 117°14'0 0.0
2017-Apr-01 00:57N 32°42' W 117°14'0 0.0
2017-Apr-01 00:24N 32°42' W 117°14'0 0.0
2017-Mar-31 23:51N 32°42' W 117°14'0 0.0
2017-Mar-31 23:27N 32°42' W 117°14'0 0.0
2017-Mar-31 22:57N 32°42' W 117°14'0 0.0
2017-Mar-31 22:21N 32°42' W 117°14'0 0.0
2017-Mar-31 21:57N 32°42' W 117°14'0 0.0
2017-Mar-31 21:27N 32°42' W 117°14'0 0.0
2017-Mar-31 20:57N 32°42' W 117°14'0 0.0
2017-Mar-31 20:21N 32°42' W 117°14'0 0.0
2017-Mar-31 19:57N 32°42' W 117°14'0 0.0
2017-Mar-31 19:15N 32°42' W 117°14'0 0.0
2017-Mar-31 19:00N 32°42' W 117°14'0 0.0
2017-Mar-31 18:27N 32°42' W 117°14'0 0.0
2017-Mar-31 17:57N 32°42' W 117°14'0 0.0
2017-Mar-31 17:21N 32°42' W 117°14'0 0.0
2017-Mar-31 16:57N 32°42' W 117°14'0 0.0
2017-Mar-31 16:27N 32°42' W 117°14'0 0.0
2017-Mar-31 15:57N 32°42' W 117°14'0 0.0
2017-Mar-31 15:27N 32°42' W 117°14'0 0.0
2017-Mar-31 14:57N 32°42' W 117°14'0 0.0
2017-Mar-31 14:27N 32°42' W 117°14'0 0.0
2017-Mar-31 13:27N 32°42' W 117°14'0 0.0
2017-Mar-31 12:57N 32°42' W 117°14'0 0.0
2017-Mar-31 12:27N 32°42' W 117°14'0 0.0
2017-Mar-31 12:00N 32°42' W 117°14'0 0.0
2017-Mar-31 11:27N 32°42' W 117°14'0 0.0
2017-Mar-31 11:00N 32°42' W 117°14'0 0.0
2017-Mar-31 10:30N 32°42' W 117°14'0 0.0
2017-Mar-31 09:57N 32°42' W 117°14'0 0.0
2017-Mar-31 09:30N 32°42' W 117°14'0 0.0
2017-Mar-31 08:57N 32°42' W 117°14'0 0.0
2017-Mar-31 08:30N 32°42' W 117°14'0 0.0
2017-Mar-31 07:57N 32°42' W 117°14'0 0.0
2017-Mar-31 07:27N 32°42' W 117°14'0 0.0
2017-Mar-31 07:00N 32°42' W 117°14'0 0.0
2017-Mar-31 06:27N 32°42' W 117°14'0 0.0
2017-Mar-31 05:51N 32°42' W 117°14'0 0.0
2017-Mar-31 05:21N 32°42' W 117°14'0 0.0
2017-Mar-31 04:57N 32°42' W 117°14'0 0.0
2017-Mar-31 04:33N 32°42' W 117°14'0 0.0
2017-Mar-31 03:33N 32°42' W 117°14'0 0.0
2017-Mar-31 02:33N 32°42' W 117°14'0 0.0
2017-Mar-31 01:33N 32°42' W 117°14'0 0.0
2017-Mar-31 00:30N 32°42' W 117°14'0 0.0
2017-Mar-30 23:27N 32°42' W 117°14'0 0.0
2017-Mar-30 22:32N 32°42' W 117°14'0 0.0
2017-Mar-30 21:32N 32°42' W 117°14'0 0.0
2017-Mar-30 20:32N 32°42' W 117°14'0 0.0
2017-Mar-30 19:32N 32°42' W 117°14'0 0.0
2017-Mar-30 18:32N 32°42' W 117°14'0 0.0
2017-Mar-30 17:29N 32°42' W 117°14'0 0.0
2017-Mar-30 16:32N 32°42' W 117°14'0 0.0
2017-Mar-30 15:20N 32°42' W 117°14'0 0.0
2017-Mar-30 14:32N 32°42' W 117°14'0 0.0
2017-Mar-30 13:32N 32°42' W 117°14'0 0.0
2017-Mar-30 12:32N 32°42' W 117°14'0 0.0
2017-Mar-30 11:32N 32°42' W 117°14'0 0.0
2017-Mar-30 10:32N 32°42' W 117°14'0 0.0
2017-Mar-30 09:26N 32°42' W 117°14'0 0.0
2017-Mar-30 08:32N 32°42' W 117°14'0 0.0
2017-Mar-30 07:29N 32°42' W 117°14'0 0.0
2017-Mar-30 06:32N 32°42' W 117°14'0 0.0
2017-Mar-30 05:29N 32°42' W 117°14'0 0.0
2017-Mar-30 04:20N 32°42' W 117°14'0 0.0
2017-Mar-30 03:32N 32°42' W 117°14'0 0.0
2017-Mar-30 02:32N 32°42' W 117°14'0 0.0
2017-Mar-30 01:32N 32°42' W 117°14'0 0.0
2017-Mar-30 00:32N 32°42' W 117°14'0 0.0
2017-Mar-29 23:32N 32°42' W 117°14'0 0.0
2017-Mar-29 22:32N 32°42' W 117°14'0 0.0
2017-Mar-29 21:32N 32°42' W 117°14'0 0.0
2017-Mar-29 20:26N 32°42' W 117°14'0 0.0
2017-Mar-29 19:32N 32°42' W 117°14'0 0.0
2017-Mar-29 18:20N 32°42' W 117°14'0 0.0
2017-Mar-29 17:32N 32°42' W 117°14'1 1.2
2017-Mar-29 16:33N 32°41' W 117°14'5 5.1
2017-Mar-29 15:33N 32°39' W 117°19'1110.7
2017-Mar-29 14:33N 32°45' W 117°30'1010.3
2017-Mar-29 13:33N 32°51' W 117°39'1010.1
2017-Mar-29 12:33N 32°56' W 117°50'1010.1
2017-Mar-29 11:33N 33°01' W 118°00'1010.2
2017-Mar-29 10:33N 33°07' W 118°10'1010.4
2017-Mar-29 09:33N 33°13' W 118°21'1110.8
2017-Mar-29 08:33N 33°18' W 118°32'1110.9
2017-Mar-29 07:33N 33°24' W 118°43'1110.9
2017-Mar-29 06:33N 33°30' W 118°54'1010.2
2017-Mar-29 05:32N 33°37' W 119°04'1010.2
2017-Mar-29 04:33N 33°44' W 119°12'1010.2
2017-Mar-29 03:33N 33°51' W 119°21'7 7.4
2017-Mar-29 02:33N 33°56' W 119°27'4 4.3
2017-Mar-29 01:33N 34°00' W 119°29'8 7.0
2017-Mar-29 00:28N 34°05' W 119°37'2 2.0
2017-Mar-28 23:31N 34°03' W 119°38'2 1.6
2017-Mar-28 22:30N 34°05' W 119°38'1111.1
2017-Mar-28 21:33N 34°16' W 119°38'3 2.5
2017-Mar-28 20:33N 34°18' W 119°38'4 3.5
2017-Mar-28 19:32N 34°18' W 119°42'  
Track history (hours):
 
Tides and Currents Weather Stations Pressure Air Temp Water Temp Dewpoint Dewpoint Depression Visibility Wind Speed Wind Dir Waves Ship Positions

Oceanographic research ship Oceanus (USA)

Detailed information on ship capabilities available from University of Delaware's Ocean Information Center and ARCUS's ALIAS (Arctic Logistics Information and Support) project.

Owner: Oregon State University, Newport, OR. More information available from US FCC via Universal Licensing System.

Last reported at 2017-Apr-07 18:34 UTC. Time now 2017-Apr-29 05:53 UTC.
Position N 27°25' W 117°31'.
Warning: this ship's position is 21 days out of date.

Length 23 m; draft 7.2 m.

Type: Other ship. MMSI: 367977000.

Date/timePositionNaut miles runAvg speedWind from/ knotsBaromVisibWave heightAir tempDewpointWater temp
2017-Apr-07 18:34N 27°25' W 117°31'1 2.1
2017-Apr-07 18:14N 27°25' W 117°31'  
2017-Apr-05 13:36N 31°07' W 119°52'111.3
2017-Apr-05 13:30N 31°07' W 119°52'611.3
2017-Apr-05 12:57N 31°13' W 119°55'511.1
2017-Apr-05 12:29N 31°18' W 119°58'7310.5
2017-Apr-05 05:34N 32°24' W 120°33'0 4.6
2017-Apr-05 05:30N 32°25' W 120°33'0 0.2
2017-Apr-05 04:44N 32°25' W 120°33'0 0.2
2017-Apr-05 04:09N 32°25' W 120°33'0 0.0
2017-Apr-05 04:00N 32°25' W 120°33'0 0.0
2017-Apr-04 23:35N 32°25' W 120°33'0 0.1
2017-Apr-04 23:25N 32°25' W 120°33'0 0.1
2017-Apr-04 22:58N 32°25' W 120°33'42 1.0
2017-Apr-03 06:40N 32°22' W 119°44'210.4
2017-Apr-03 06:28N 32°22' W 119°41'510.4
2017-Apr-03 06:00N 32°21' W 119°36'710.3
2017-Apr-03 05:21N 32°20' W 119°28'410.3
2017-Apr-03 04:59N 32°19' W 119°23'510.2
2017-Apr-03 04:27N 32°18' W 119°17'410.2
2017-Apr-03 04:00N 32°17' W 119°12'11 9.9
2017-Apr-03 02:51N 32°17' W 118°58'410.5
2017-Apr-03 02:28N 32°18' W 118°54'610.4
2017-Apr-03 01:56N 32°20' W 118°47'410.4
2017-Apr-03 01:30N 32°21' W 118°42'510.1
2017-Apr-03 01:00N 32°22' W 118°36'510.2
2017-Apr-03 00:29N 32°23' W 118°30'510.1
2017-Apr-03 00:00N 32°24' W 118°24'510.2
2017-Apr-02 23:30N 32°25' W 118°19'5 9.9
2017-Apr-02 23:00N 32°26' W 118°13'5 9.7
2017-Apr-02 22:30N 32°27' W 118°07'5 9.8
2017-Apr-02 22:00N 32°28' W 118°02'510.1
2017-Apr-02 21:30N 32°30' W 117°56'5 9.7
2017-Apr-02 21:00N 32°31' W 117°50'5 9.7
2017-Apr-02 20:30N 32°32' W 117°45'510.1
2017-Apr-02 20:00N 32°33' W 117°39'510.1
2017-Apr-02 19:30N 32°34' W 117°33'510.0
2017-Apr-02 19:00N 32°35' W 117°27'510.1
2017-Apr-02 18:30N 32°37' W 117°21'510.7
2017-Apr-02 18:00N 32°38' W 117°15'4 8.7
2017-Apr-02 17:30N 32°42' W 117°14'0 0.9
2017-Apr-02 16:59N 32°42' W 117°14'0 0.0
2017-Apr-02 16:29N 32°42' W 117°14'0 0.0
2017-Apr-02 15:59N 32°42' W 117°14'0 0.0
2017-Apr-02 15:28N 32°42' W 117°14'0 0.0
2017-Apr-02 14:58N 32°42' W 117°14'0 0.0
2017-Apr-02 14:28N 32°42' W 117°14'0 0.0
2017-Apr-02 13:28N 32°42' W 117°14'0 0.0
2017-Apr-02 12:52N 32°42' W 117°14'0 0.0
2017-Apr-02 12:28N 32°42' W 117°14'0 0.0
2017-Apr-02 11:46N 32°42' W 117°14'0 0.0
2017-Apr-02 11:28N 32°42' W 117°14'0 0.0
2017-Apr-02 10:58N 32°42' W 117°14'0 0.0
2017-Apr-02 10:13N 32°42' W 117°14'0 0.0
2017-Apr-02 09:58N 32°42' W 117°14'0 0.0
2017-Apr-02 09:28N 32°42' W 117°14'0 0.0
2017-Apr-02 08:58N 32°42' W 117°14'0 0.0
2017-Apr-02 08:28N 32°42' W 117°14'0 0.0
2017-Apr-02 07:55N 32°42' W 117°14'0 0.0
2017-Apr-02 07:28N 32°42' W 117°14'0 0.0
2017-Apr-02 06:58N 32°42' W 117°14'0 0.0
2017-Apr-02 06:19N 32°42' W 117°14'0 0.0
2017-Apr-02 05:58N 32°42' W 117°14'0 0.0
2017-Apr-02 05:28N 32°42' W 117°14'0 0.0
2017-Apr-02 04:58N 32°42' W 117°14'0 0.0
2017-Apr-02 04:28N 32°42' W 117°14'0 0.0
2017-Apr-02 03:58N 32°42' W 117°14'0 0.0
2017-Apr-02 03:28N 32°42' W 117°14'0 0.0
2017-Apr-02 02:58N 32°42' W 117°14'0 0.0
2017-Apr-02 02:28N 32°42' W 117°14'0 0.0
2017-Apr-02 01:58N 32°42' W 117°14'0 0.0
2017-Apr-02 01:28N 32°42' W 117°14'0 0.0
2017-Apr-02 00:52N 32°42' W 117°14'0 0.0
2017-Apr-02 00:28N 32°42' W 117°14'0 0.0
2017-Apr-01 23:52N 32°42' W 117°14'0 0.0
2017-Apr-01 23:28N 32°42' W 117°14'0 0.0
2017-Apr-01 22:58N 32°42' W 117°14'0 0.0
2017-Apr-01 22:28N 32°42' W 117°14'0 0.0
2017-Apr-01 21:49N 32°42' W 117°14'0 0.0
2017-Apr-01 21:28N 32°42' W 117°14'0 0.0
2017-Apr-01 20:58N 32°42' W 117°14'0 0.0
2017-Apr-01 20:28N 32°42' W 117°14'0 0.0
2017-Apr-01 19:58N 32°42' W 117°14'0 0.0
2017-Apr-01 19:22N 32°42' W 117°14'0 0.0
2017-Apr-01 18:58N 32°42' W 117°14'0 0.0
2017-Apr-01 18:28N 32°42' W 117°14'0 0.0
2017-Apr-01 17:28N 32°42' W 117°14'0 0.0
2017-Apr-01 16:52N 32°42' W 117°14'0 0.0
2017-Apr-01 16:16N 32°42' W 117°14'0 0.0
2017-Apr-01 15:58N 32°42' W 117°14'0 0.0
2017-Apr-01 15:25N 32°42' W 117°14'0 0.0
2017-Apr-01 14:58N 32°42' W 117°14'0 0.0
2017-Apr-01 14:28N 32°42' W 117°14'0 0.0
2017-Apr-01 13:28N 32°42' W 117°14'0 0.0
2017-Apr-01 12:58N 32°42' W 117°14'0 0.0
2017-Apr-01 12:28N 32°42' W 117°14'0 0.0
2017-Apr-01 11:58N 32°42' W 117°14'0 0.0
2017-Apr-01 11:28N 32°42' W 117°14'0 0.0
2017-Apr-01 10:58N 32°42' W 117°14'0 0.0
2017-Apr-01 10:28N 32°42' W 117°14'0 0.0
2017-Apr-01 09:55N 32°42' W 117°14'0 0.0
2017-Apr-01 09:28N 32°42' W 117°14'0 0.0
2017-Apr-01 08:58N 32°42' W 117°14'0 0.0
2017-Apr-01 08:28N 32°42' W 117°14'0 0.0
2017-Apr-01 07:58N 32°42' W 117°14'0 0.0
2017-Apr-01 07:30N 32°42' W 117°14'0 0.0
2017-Apr-01 07:00N 32°42' W 117°14'0 0.0
2017-Apr-01 06:27N 32°42' W 117°14'0 0.0
2017-Apr-01 05:57N 32°42' W 117°14'0 0.0
2017-Apr-01 05:27N 32°42' W 117°14'0 0.0
2017-Apr-01 04:57N 32°42' W 117°14'0 0.0
2017-Apr-01 04:27N 32°42' W 117°14'0 0.0
2017-Apr-01 03:57N 32°42' W 117°14'0 0.0
2017-Apr-01 03:27N 32°42' W 117°14'0 0.0
2017-Apr-01 02:57N 32°42' W 117°14'0 0.0
2017-Apr-01 02:27N 32°42' W 117°14'0 0.0
2017-Apr-01 01:57N 32°42' W 117°14'0 0.0
2017-Apr-01 01:21N 32°42' W 117°14'0 0.0
2017-Apr-01 00:57N 32°42' W 117°14'0 0.0
2017-Apr-01 00:24N 32°42' W 117°14'0 0.0
2017-Mar-31 23:51N 32°42' W 117°14'0 0.0
2017-Mar-31 23:27N 32°42' W 117°14'0 0.0
2017-Mar-31 22:57N 32°42' W 117°14'0 0.0
2017-Mar-31 22:21N 32°42' W 117°14'0 0.0
2017-Mar-31 21:57N 32°42' W 117°14'0 0.0
2017-Mar-31 21:27N 32°42' W 117°14'0 0.0
2017-Mar-31 20:57N 32°42' W 117°14'0 0.0
2017-Mar-31 20:21N 32°42' W 117°14'0 0.0
2017-Mar-31 19:57N 32°42' W 117°14'0 0.0
2017-Mar-31 19:15N 32°42' W 117°14'0 0.0
2017-Mar-31 19:00N 32°42' W 117°14'0 0.0
2017-Mar-31 18:27N 32°42' W 117°14'0 0.0
2017-Mar-31 17:57N 32°42' W 117°14'0 0.0
2017-Mar-31 17:21N 32°42' W 117°14'0 0.0
2017-Mar-31 16:57N 32°42' W 117°14'0 0.0
2017-Mar-31 16:27N 32°42' W 117°14'0 0.0
2017-Mar-31 15:57N 32°42' W 117°14'0 0.0
2017-Mar-31 15:27N 32°42' W 117°14'0 0.0
2017-Mar-31 14:57N 32°42' W 117°14'0 0.0
2017-Mar-31 14:27N 32°42' W 117°14'0 0.0
2017-Mar-31 13:27N 32°42' W 117°14'0 0.0
2017-Mar-31 12:57N 32°42' W 117°14'0 0.0
2017-Mar-31 12:27N 32°42' W 117°14'0 0.0
2017-Mar-31 12:00N 32°42' W 117°14'0 0.0
2017-Mar-31 11:27N 32°42' W 117°14'0 0.0
2017-Mar-31 11:00N 32°42' W 117°14'0 0.0
2017-Mar-31 10:30N 32°42' W 117°14'0 0.0
2017-Mar-31 09:57N 32°42' W 117°14'0 0.0
2017-Mar-31 09:30N 32°42' W 117°14'0 0.0
2017-Mar-31 08:57N 32°42' W 117°14'0 0.0
2017-Mar-31 08:30N 32°42' W 117°14'0 0.0
2017-Mar-31 07:57N 32°42' W 117°14'0 0.0
2017-Mar-31 07:27N 32°42' W 117°14'0 0.0
2017-Mar-31 07:00N 32°42' W 117°14'0 0.0
2017-Mar-31 06:27N 32°42' W 117°14'0 0.0
2017-Mar-31 05:51N 32°42' W 117°14'0 0.0
2017-Mar-31 05:21N 32°42' W 117°14'0 0.0
2017-Mar-31 04:57N 32°42' W 117°14'0 0.0
2017-Mar-31 04:33N 32°42' W 117°14'0 0.0
2017-Mar-31 03:33N 32°42' W 117°14'0 0.0
2017-Mar-31 02:33N 32°42' W 117°14'0 0.0
2017-Mar-31 01:33N 32°42' W 117°14'0 0.0
2017-Mar-31 00:30N 32°42' W 117°14'0 0.0
2017-Mar-30 23:27N 32°42' W 117°14'0 0.0
2017-Mar-30 22:32N 32°42' W 117°14'0 0.0
2017-Mar-30 21:32N 32°42' W 117°14'0 0.0
2017-Mar-30 20:32N 32°42' W 117°14'0 0.0
2017-Mar-30 19:32N 32°42' W 117°14'0 0.0
2017-Mar-30 18:32N 32°42' W 117°14'0 0.0
2017-Mar-30 17:29N 32°42' W 117°14'0 0.0
2017-Mar-30 16:32N 32°42' W 117°14'0 0.0
2017-Mar-30 15:20N 32°42' W 117°14'0 0.0
2017-Mar-30 14:32N 32°42' W 117°14'0 0.0
2017-Mar-30 13:32N 32°42' W 117°14'0 0.0
2017-Mar-30 12:32N 32°42' W 117°14'0 0.0
2017-Mar-30 11:32N 32°42' W 117°14'0 0.0
2017-Mar-30 10:32N 32°42' W 117°14'0 0.0
2017-Mar-30 09:26N 32°42' W 117°14'0 0.0
2017-Mar-30 08:32N 32°42' W 117°14'0 0.0
2017-Mar-30 07:29N 32°42' W 117°14'0 0.0
2017-Mar-30 06:32N 32°42' W 117°14'0 0.0
2017-Mar-30 05:29N 32°42' W 117°14'0 0.0
2017-Mar-30 04:20N 32°42' W 117°14'0 0.0
2017-Mar-30 03:32N 32°42' W 117°14'0 0.0
2017-Mar-30 02:32N 32°42' W 117°14'0 0.0
2017-Mar-30 01:32N 32°42' W 117°14'0 0.0
2017-Mar-30 00:32N 32°42' W 117°14'0 0.0
2017-Mar-29 23:32N 32°42' W 117°14'0 0.0
2017-Mar-29 22:32N 32°42' W 117°14'0 0.0
2017-Mar-29 21:32N 32°42' W 117°14'0 0.0
2017-Mar-29 20:26N 32°42' W 117°14'0 0.0
2017-Mar-29 19:32N 32°42' W 117°14'0 0.0
2017-Mar-29 18:20N 32°42' W 117°14'0 0.0
2017-Mar-29 17:32N 32°42' W 117°14'1 1.2
2017-Mar-29 16:33N 32°41' W 117°14'5 5.1
2017-Mar-29 15:33N 32°39' W 117°19'1110.7
2017-Mar-29 14:33N 32°45' W 117°30'1010.3
2017-Mar-29 13:33N 32°51' W 117°39'1010.1
2017-Mar-29 12:33N 32°56' W 117°50'1010.1
2017-Mar-29 11:33N 33°01' W 118°00'1010.2
2017-Mar-29 10:33N 33°07' W 118°10'1010.4
2017-Mar-29 09:33N 33°13' W 118°21'1110.8
2017-Mar-29 08:33N 33°18' W 118°32'1110.9
2017-Mar-29 07:33N 33°24' W 118°43'1110.9
2017-Mar-29 06:33N 33°30' W 118°54'1010.2
2017-Mar-29 05:32N 33°37' W 119°04'1010.2
2017-Mar-29 04:33N 33°44' W 119°12'1010.2
2017-Mar-29 03:33N 33°51' W 119°21'7 7.4
2017-Mar-29 02:33N 33°56' W 119°27'4 4.3
2017-Mar-29 01:33N 34°00' W 119°29'8 7.0
2017-Mar-29 00:28N 34°05' W 119°37'2 2.0
2017-Mar-28 23:31N 34°03' W 119°38'2 1.6
2017-Mar-28 22:30N 34°05' W 119°38'1111.1
2017-Mar-28 21:33N 34°16' W 119°38'3 2.5
2017-Mar-28 20:33N 34°18' W 119°38'4 3.5
2017-Mar-28 19:32N 34°18' W 119°42'  

Dump ship's entire track history